Time;durP1;ratioP1;P1;durP2;ratioP2;P2;SDS_P1;SDS_P2;PMS_P1;PMS_P2;Temp;Humidity;BMP_temperature;BMP_pressure;BME280_temperature;BME280_humidity;BME280_pressure;Samples;Min_cycle;Max_cycle;Signal;HPM_P1;HPM_P2
2022/01/16 00:00:05;;;;;;;29.92;14.51;;;;;;;0.20;92.28;100128.53;2020256;80;20609;-70
2022/01/16 00:06:30;;;;;;;31.62;16.52;;;;;;;0.14;92.63;100171.63;2021179;80;20179;-70
2022/01/16 00:09:35;;;;;;;30.38;15.81;;;;;;;0.16;92.97;100164.91;2022541;80;20244;-70
2022/01/16 00:12:38;;;;;;;29.79;15.91;;;;;;;0.18;93.01;100160.75;2019727;80;20171;-70
2022/01/16 00:15:44;;;;;;;32.92;15.94;;;;;;;0.21;93.12;100155.81;2019372;77;20592;-70
2022/01/16 00:18:49;;;;;;;34.43;16.41;;;;;;;0.26;93.18;100159.47;2020245;80;20179;-70
2022/01/16 00:21:52;;;;;;;33.19;15.84;;;;;;;0.26;93.12;100159.47;2020740;80;20214;-70
2022/01/16 00:24:55;;;;;;;32.84;17.23;;;;;;;0.30;93.21;100146.03;2021013;80;20368;-70
2022/01/16 00:27:58;;;;;;;32.93;16.67;;;;;;;0.33;93.24;100152.97;2020970;80;20458;-70
2022/01/16 00:31:00;;;;;;;35.30;16.08;;;;;;;0.36;93.20;100153.13;2020372;78;20627;-70
2022/01/16 00:34:05;;;;;;;32.42;17.01;;;;;;;0.31;92.80;100142.69;2085515;69;20699;-70
2022/01/16 00:37:07;;;;;;;35.49;17.04;;;;;;;0.27;93.04;100139.13;2021587;80;20163;-70
2022/01/16 00:40:10;;;;;;;35.90;17.15;;;;;;;0.30;93.20;100139.25;2021366;80;21052;-71
2022/01/16 00:43:14;;;;;;;36.06;17.67;;;;;;;0.28;93.08;100158.75;2021374;80;20755;-70
2022/01/16 00:46:18;;;;;;;33.92;17.50;;;;;;;0.29;93.20;100121.31;2020022;78;21200;-70
2022/01/16 00:49:20;;;;;;;36.39;17.39;;;;;;;0.31;93.29;100129.91;2021723;80;20214;-70
2022/01/16 00:52:23;;;;;;;34.74;17.77;;;;;;;0.32;93.20;100135.91;2021845;80;20167;-70
2022/01/16 00:55:25;;;;;;;38.95;18.73;;;;;;;0.33;93.32;100141.06;2021235;80;20269;-70
2022/01/16 00:58:28;;;;;;;39.50;18.67;;;;;;;0.33;93.26;100153.84;2024916;80;20300;-70
2022/01/16 01:01:31;;;;;;;40.01;18.23;;;;;;;0.33;93.26;100140.19;2020246;77;21440;-70
2022/01/16 01:04:33;;;;;;;40.42;19.01;;;;;;;0.30;93.20;100164.78;2021847;80;20710;-70
2022/01/16 01:07:38;;;;;;;38.31;18.76;;;;;;;0.27;93.22;100154.44;2021913;80;20183;-70
2022/01/16 01:11:04;;;;;;;36.99;18.54;;;;;;;0.28;93.35;100178.28;2018384;80;20354;-70
2022/01/16 01:17:19;;;;;;;37.49;18.53;;;;;;;0.23;93.14;100184.88;2020466;78;23547;-70
2022/01/16 01:20:24;;;;;;;41.46;19.59;;;;;;;0.25;93.19;100178.16;2021360;80;20178;-70
2022/01/16 01:23:26;;;;;;;33.68;17.51;;;;;;;0.25;92.94;100178.16;2021493;80;20352;-70
2022/01/16 01:26:35;;;;;;;39.46;19.41;;;;;;;0.25;92.90;100134.75;2021100;80;20692;-70
2022/01/16 01:29:40;;;;;;;31.80;16.76;;;;;;;0.20;92.78;100101.31;2021696;80;20312;-70
2022/01/16 01:32:47;;;;;;;39.89;19.15;;;;;;;0.21;92.83;100094.53;2019761;77;20171;-70
2022/01/16 01:35:49;;;;;;;35.16;17.32;;;;;;;0.21;92.59;100090.31;2021295;80;20331;-70
2022/01/16 01:38:52;;;;;;;40.00;20.11;;;;;;;0.17;92.46;100087.50;2021579;80;20261;-70
2022/01/16 01:42:04;;;;;;;40.11;18.67;;;;;;;0.14;92.44;100123.13;2020356;80;20308;-70
2022/01/16 01:51:53;;;;;;;40.73;18.36;;;;;;;0.14;92.49;100175.06;2016386;80;20260;-70
2022/01/16 01:54:55;;;;;;;40.47;20.04;;;;;;;0.09;92.33;100170.53;2015937;80;20176;-70
2022/01/16 01:57:58;;;;;;;36.43;17.58;;;;;;;0.11;92.66;100171.47;2015884;80;20203;-70
2022/01/16 02:01:01;;;;;;;37.30;18.32;;;;;;;0.14;92.59;100163.97;2014184;78;22234;-70
2022/01/16 02:04:04;;;;;;;37.20;18.56;;;;;;;0.15;92.57;100166.59;2019006;80;20172;-70
2022/01/16 02:07:07;;;;;;;34.97;18.46;;;;;;;0.17;92.45;100181.97;2015866;80;20195;-70
2022/01/16 02:10:10;;;;;;;36.12;18.01;;;;;;;0.18;92.44;100181.19;2015456;80;20197;-70
2022/01/16 02:13:29;;;;;;;41.40;19.24;;;;;;;0.16;92.16;100210.88;2015949;80;20231;-70
2022/01/16 02:34:28;;;;;;;31.67;16.40;;;;;;;0.04;91.79;100188.19;2010139;78;20671;-70
2022/01/16 02:36:35;;;;;;;34.24;16.58;;;;;;;0.10;91.93;100169.72;2011113;80;20542;-70
2022/01/16 02:39:42;;;;;;;35.36;16.99;;;;;;;0.10;91.84;100152.72;2010544;80;20238;-70
2022/01/16 02:42:49;;;;;;;39.91;16.77;;;;;;;0.11;91.76;100151.06;2006353;80;20214;-70
2022/01/16 02:46:08;;;;;;;36.81;19.01;;;;;;;0.05;91.55;100166.09;2009813;78;21278;-70
2022/01/16 02:49:21;;;;;;;38.49;18.76;;;;;;;-0.01;91.56;100166.63;2015777;80;20282;-70
2022/01/16 02:52:24;;;;;;;36.99;17.49;;;;;;;-0.05;91.59;100159.63;2015620;80;21072;-70
2022/01/16 02:55:27;;;;;;;41.59;17.68;;;;;;;-0.07;91.70;100146.78;2016006;80;20709;-70
2022/01/16 02:58:29;;;;;;;38.30;18.34;;;;;;;-0.10;91.94;100139.00;2015291;80;20212;-70
2022/01/16 03:01:32;;;;;;;39.30;19.79;;;;;;;-0.12;91.97;100140.59;2011819;77;21293;-70
2022/01/16 03:04:35;;;;;;;40.40;19.50;;;;;;;-0.15;92.28;100120.03;2011169;80;20185;-70
2022/01/16 03:07:38;;;;;;;41.92;18.98;;;;;;;-0.11;92.66;100126.16;2011287;80;20242;-70
2022/01/16 03:11:13;;;;;;;39.04;18.13;;;;;;;-0.10;92.54;100117.69;2011219;80;20192;-70
2022/01/16 03:14:19;;;;;;;35.84;18.37;;;;;;;-0.08;92.75;100116.09;2012903;80;20194;-70
2022/01/16 03:17:34;;;;;;;39.69;18.08;;;;;;;-0.10;92.57;100122.81;2014343;77;20345;-70
2022/01/16 03:23:58;;;;;;;35.21;16.67;;;;;;;-0.23;92.41;100128.09;2017625;80;20200;-70
2022/01/16 03:27:04;;;;;;;33.48;16.99;;;;;;;-0.28;92.33;100132.97;2016936;80;20175;-70
2022/01/16 03:30:08;;;;;;;33.56;17.18;;;;;;;-0.35;92.44;100138.56;2016203;80;20268;-70
2022/01/16 03:33:10;;;;;;;35.01;17.84;;;;;;;-0.32;92.73;100136.16;2017179;78;20624;-70
2022/01/16 03:36:13;;;;;;;32.64;16.01;;;;;;;-0.34;92.53;100130.13;2017512;80;20189;-70
2022/01/16 03:39:16;;;;;;;33.01;16.01;;;;;;;-0.43;92.38;100132.19;2017346;80;20312;-70
2022/01/16 03:42:24;;;;;;;34.40;17.76;;;;;;;-0.41;92.69;100125.47;2017579;80;20175;-70
2022/01/16 03:45:27;;;;;;;;;;;;;;;-0.45;92.44;100121.03;2015698;78;21517;-70
2022/01/16 03:48:29;;;;;;;;;;;;;;;-0.47;92.49;100115.84;2022902;80;20663;-70
2022/01/16 03:51:33;;;;;;;31.91;16.08;;;;;;;-0.50;92.26;100132.69;2023102;80;20063;-70
2022/01/16 03:54:36;;;;;;;31.88;15.56;;;;;;;-0.53;92.46;100127.44;2022740;80;20214;-70
2022/01/16 03:57:39;;;;;;;38.80;19.87;;;;;;;-0.53;92.54;100127.44;2022148;80;20228;-70
2022/01/16 04:00:42;;;;;;;37.93;18.27;;;;;;;-0.53;92.61;100130.84;2020402;78;20284;-70
2022/01/16 04:03:45;;;;;;;33.07;16.16;;;;;;;-0.55;92.55;100134.09;2017187;80;20339;-70
2022/01/16 04:06:48;;;;;;;35.26;17.68;;;;;;;-0.51;92.77;100144.56;2016177;80;20229;-70
2022/01/16 04:09:50;;;;;;;35.81;17.70;;;;;;;-0.51;92.71;100146.22;2016200;80;20751;-70
2022/01/16 04:12:53;;;;;;;35.26;17.57;;;;;;;-0.50;92.68;100145.44;2015480;80;20241;-70
2022/01/16 04:15:56;;;;;;;34.61;17.48;;;;;;;-0.53;92.61;100151.25;2015172;78;26298;-70
2022/01/16 04:18:58;;;;;;;38.79;18.46;;;;;;;-0.50;92.78;100159.06;2016188;80;20293;-70
2022/01/16 04:22:01;;;;;;;39.30;18.33;;;;;;;-0.47;92.90;100163.44;2016075;80;21263;-70
2022/01/16 04:25:04;;;;;;;38.31;18.71;;;;;;;-0.47;92.90;100164.31;2016279;80;20176;-70
2022/01/16 04:28:07;;;;;;;40.12;19.20;;;;;;;-0.47;92.87;100181.28;2016373;80;20175;-70
2022/01/16 04:31:09;;;;;;;39.11;17.94;;;;;;;-0.47;92.79;100186.41;2014404;78;20696;-70
2022/01/16 04:34:12;;;;;;;38.37;18.47;;;;;;;-0.43;93.11;100186.63;2016598;80;20227;-70
2022/01/16 04:37:15;;;;;;;36.34;17.10;;;;;;;-0.41;92.94;100194.34;2015568;80;20180;-70
2022/01/16 04:40:18;;;;;;;34.63;17.47;;;;;;;-0.38;92.97;100195.38;2016009;80;20209;-70
2022/01/16 04:46:41;;;;;;;37.37;17.53;;;;;;;-0.35;93.03;100187.91;2014325;77;22211;-70
2022/01/16 04:49:44;;;;;;;38.54;18.43;;;;;;;-0.35;92.84;100181.94;2016485;80;20660;-70
2022/01/16 04:52:47;;;;;;;33.51;17.47;;;;;;;-0.35;93.01;100177.72;2016352;80;20183;-70
2022/01/16 04:55:50;;;;;;;35.94;18.06;;;;;;;-0.33;93.04;100178.66;2015433;80;20309;-70
2022/01/16 04:58:53;;;;;;;33.27;17.44;;;;;;;-0.31;92.91;100178.75;2015912;80;20733;-70
2022/01/16 05:01:55;;;;;;;34.20;17.69;;;;;;;-0.35;92.69;100181.94;2013678;78;20167;-70
2022/01/16 05:04:58;;;;;;;33.83;16.59;;;;;;;-0.35;93.11;100193.03;2016428;80;20582;-70
2022/01/16 05:08:01;;;;;;;32.59;15.58;;;;;;;-0.35;92.95;100198.13;2015514;80;20928;-70
2022/01/16 05:11:05;;;;;;;34.54;16.80;;;;;;;-0.42;92.76;100196.03;2015858;80;20233;-70
2022/01/16 05:17:10;;;;;;;33.40;16.74;;;;;;;-0.42;92.89;100200.25;2014555;78;21677;-70
2022/01/16 05:20:13;;;;;;;35.03;16.31;;;;;;;-0.43;93.04;100207.03;2016108;80;20194;-70
2022/01/16 05:23:16;;;;;;;35.46;16.73;;;;;;;-0.44;93.26;100205.28;2018669;80;20217;-70
2022/01/16 05:26:25;;;;;;;34.50;15.96;;;;;;;-0.38;93.37;100207.25;2015879;80;20199;-70
2022/01/16 05:29:28;;;;;;;35.70;17.01;;;;;;;-0.36;93.23;100227.00;2015394;80;20265;-70
2022/01/16 05:32:31;;;;;;;34.03;15.96;;;;;;;-0.40;93.03;100229.28;2014338;77;20629;-70
2022/01/16 05:35:34;;;;;;;39.48;19.19;;;;;;;-0.42;93.01;100221.53;2014969;80;20217;-70
2022/01/16 05:38:37;;;;;;;38.56;16.89;;;;;;;-0.48;92.93;100228.88;2015358;80;20191;-70
2022/01/16 05:41:39;;;;;;;40.02;17.77;;;;;;;-0.43;93.23;100244.41;2015889;80;20221;-70
2022/01/16 05:44:42;;;;;;;37.81;18.38;;;;;;;-0.42;93.32;100241.94;2015727;80;20291;-70
2022/01/16 05:47:45;;;;;;;31.00;15.81;;;;;;;-0.40;93.33;100235.25;2014065;78;21445;-70
2022/01/16 05:50:48;;;;;;;45.22;18.74;;;;;;;-0.38;93.32;100220.03;2015512;80;20187;-70
2022/01/16 05:53:51;;;;;;;38.54;17.87;;;;;;;-0.39;93.37;100223.38;2015860;80;20595;-70
2022/01/16 05:56:53;;;;;;;36.98;17.54;;;;;;;-0.40;93.38;100219.06;2014976;80;20203;-70
2022/01/16 05:59:56;;;;;;;39.83;17.62;;;;;;;-0.36;93.61;100220.97;2015932;80;20572;-70
2022/01/16 06:02:58;;;;;;;39.41;17.92;;;;;;;-0.39;93.51;100237.00;2014015;78;22037;-70
2022/01/16 06:06:01;;;;;;;36.21;17.36;;;;;;;-0.36;93.72;100226.06;2016781;80;20245;-70
2022/01/16 06:09:04;;;;;;;38.49;17.69;;;;;;;-0.32;93.66;100225.47;2015616;80;20195;-70
2022/01/16 06:12:07;;;;;;;34.37;16.57;;;;;;;-0.36;93.50;100234.63;2015875;80;20172;-70
2022/01/16 06:15:10;;;;;;;33.63;16.68;;;;;;;-0.32;93.68;100223.78;2014369;80;20192;-70
2022/01/16 06:18:14;;;;;;;36.44;17.22;;;;;;;-0.29;93.73;100237.50;2016025;77;22641;-70
2022/01/16 06:21:16;;;;;;;40.78;18.09;;;;;;;-0.28;93.68;100235.03;2015871;80;20163;-70
2022/01/16 06:24:19;;;;;;;34.09;16.54;;;;;;;-0.33;93.46;100237.34;2015808;80;20194;-70
2022/01/16 06:27:21;;;;;;;35.27;16.67;;;;;;;-0.29;93.83;100247.72;2015487;80;20209;-70
2022/01/16 06:30:24;;;;;;;35.08;17.78;;;;;;;-0.29;93.80;100240.06;2014899;78;22202;-70
2022/01/16 06:33:27;;;;;;;31.71;15.53;;;;;;;-0.27;93.80;100256.31;2017825;80;20234;-70
2022/01/16 06:36:30;;;;;;;38.00;18.19;;;;;;;-0.27;93.88;100257.19;2017961;80;20213;-70
2022/01/16 06:39:34;;;;;;;36.49;17.32;;;;;;;-0.31;93.94;100258.72;2017912;80;20280;-70
2022/01/16 06:42:37;;;;;;;38.13;17.23;;;;;;;-0.26;94.18;100261.50;2017399;80;20253;-70
2022/01/16 06:45:40;;;;;;;33.60;16.90;;;;;;;-0.24;94.16;100259.03;2015820;78;23120;-70
2022/01/16 06:48:43;;;;;;;36.54;16.92;;;;;;;-0.21;94.24;100274.50;2017696;80;20278;-70
2022/01/16 06:51:45;;;;;;;33.02;16.07;;;;;;;-0.17;94.28;100274.75;2016686;80;20274;-70
2022/01/16 06:54:48;;;;;;;35.91;16.79;;;;;;;-0.13;94.36;100293.66;2017116;80;20175;-70
2022/01/16 06:57:51;;;;;;;34.26;15.44;;;;;;;-0.11;94.45;100292.94;2017300;80;20225;-70
2022/01/16 07:00:54;;;;;;;32.47;15.59;;;;;;;-0.11;94.28;100292.94;2016194;80;20995;-70
2022/01/16 07:03:57;;;;;;;32.80;16.24;;;;;;;-0.12;94.44;100300.50;2017572;80;20197;-70
2022/01/16 07:07:00;;;;;;;34.62;17.02;;;;;;;-0.12;94.49;100311.59;2015291;80;20213;-70
2022/01/16 07:10:03;;;;;;;34.28;16.63;;;;;;;-0.09;94.57;100324.50;2017688;80;20179;-70
2022/01/16 07:13:06;;;;;;;34.99;17.10;;;;;;;-0.07;94.62;100325.47;2017711;80;20621;-70
2022/01/16 07:16:09;;;;;;;31.77;16.26;;;;;;;-0.04;94.65;100323.06;2016111;78;20199;-70
2022/01/16 07:19:11;;;;;;;30.54;15.79;;;;;;;-0.03;94.52;100323.94;2017362;80;20676;-71
2022/01/16 07:22:14;;;;;;;29.85;15.57;;;;;;;-0.03;94.64;100329.06;2017228;80;20619;-71
2022/01/16 07:25:16;;;;;;;32.24;16.06;;;;;;;-0.01;94.58;100340.22;2017842;80;20418;-70
2022/01/16 07:28:20;;;;;;;30.59;16.58;;;;;;;-0.06;94.57;100357.84;2016671;80;20192;-71
2022/01/16 07:31:23;;;;;;;33.71;16.77;;;;;;;-0.03;94.86;100350.34;2015363;77;35352;-70
2022/01/16 07:34:26;;;;;;;27.41;14.90;;;;;;;-0.04;94.74;100353.69;2017375;80;20189;-70
2022/01/16 07:37:28;;;;;;;29.86;15.49;;;;;;;0.02;94.90;100353.16;2017511;80;20183;-70
2022/01/16 07:40:31;;;;;;;27.00;14.54;;;;;;;0.03;94.89;100352.38;2016994;80;20643;-71
2022/01/16 07:43:33;;;;;;;29.19;15.24;;;;;;;0.04;94.82;100366.88;2017141;80;20260;-71
2022/01/16 07:46:36;;;;;;;27.48;14.32;;;;;;;0.07;94.85;100356.84;2012776;77;21483;-72
2022/01/16 07:49:39;;;;;;;26.07;14.58;;;;;;;0.10;94.83;100346.78;2012020;80;20323;-72
2022/01/16 07:52:42;;;;;;;22.74;13.12;;;;;;;0.12;94.73;100350.28;2017184;80;20558;-71
2022/01/16 07:55:45;;;;;;;28.25;14.14;;;;;;;0.14;94.73;100343.56;2017389;80;20197;-71
2022/01/16 07:58:47;;;;;;;24.80;14.44;;;;;;;0.15;94.62;100347.88;2017235;80;20365;-73
2022/01/16 08:01:50;;;;;;;25.75;14.34;;;;;;;0.17;94.64;100355.63;2013166;78;24958;-71
2022/01/16 08:04:53;;;;;;;25.99;14.53;;;;;;;0.19;94.64;100351.50;2012376;80;20798;-71
2022/01/16 08:07:56;;;;;;;24.00;13.32;;;;;;;0.22;94.57;100354.22;2012557;80;20912;-72
2022/01/16 08:10:58;;;;;;;29.88;15.66;;;;;;;0.22;94.46;100364.41;2013010;80;20245;-72
2022/01/16 08:14:01;;;;;;;30.47;13.88;;;;;;;0.25;94.48;100370.56;2012255;80;20257;-72
2022/01/16 08:17:04;;;;;;;24.74;14.03;;;;;;;0.27;94.32;100366.41;2010790;78;27231;-71
2022/01/16 08:20:08;;;;;;;26.14;14.37;;;;;;;0.31;94.34;100357.22;2017996;80;21285;-71
2022/01/16 08:23:11;;;;;;;25.53;13.64;;;;;;;0.35;94.30;100355.69;2017581;80;20225;-71
2022/01/16 08:26:14;;;;;;;28.08;15.13;;;;;;;0.38;94.17;100353.31;2018277;80;20249;-72
2022/01/16 08:29:18;;;;;;;28.29;14.62;;;;;;;0.38;94.03;100364.41;2017547;80;20709;-71
2022/01/16 08:32:21;;;;;;;29.93;15.87;;;;;;;0.37;94.06;100367.78;2012508;77;22806;-71
2022/01/16 08:35:24;;;;;;;34.48;16.66;;;;;;;0.39;94.02;100378.06;2021735;80;20277;-70
2022/01/16 08:38:27;;;;;;;31.98;16.23;;;;;;;0.41;94.03;100389.25;2022757;80;20167;-70
2022/01/16 08:41:32;;;;;;;30.42;15.46;;;;;;;0.45;93.98;100401.38;2022928;80;20357;-69
2022/01/16 08:44:36;;;;;;;28.56;16.09;;;;;;;0.45;93.84;100396.25;2023413;80;20323;-69
2022/01/16 08:47:38;;;;;;;29.89;16.54;;;;;;;0.45;93.89;100409.91;2017324;77;20554;-69
2022/01/16 08:50:41;;;;;;;30.46;16.49;;;;;;;0.45;93.84;100409.91;2017742;80;20263;-69
2022/01/16 08:53:45;;;;;;;35.40;17.28;;;;;;;0.48;93.92;100425.41;2018187;80;20239;-70
2022/01/16 08:56:48;;;;;;;29.89;16.98;;;;;;;0.52;93.90;100417.09;2017693;80;20258;-70
2022/01/16 08:59:50;;;;;;;32.30;17.29;;;;;;;0.55;93.77;100421.50;2018277;80;20270;-69
2022/01/16 09:02:53;;;;;;;35.64;18.38;;;;;;;0.57;93.79;100415.66;2020506;78;20419;-69
2022/01/16 09:05:56;;;;;;;32.60;16.19;;;;;;;0.54;93.59;100428.28;2022878;80;20171;-70
2022/01/16 09:08:59;;;;;;;29.46;15.76;;;;;;;0.55;93.71;100429.16;2023020;80;20474;-71
2022/01/16 09:12:02;;;;;;;31.64;16.64;;;;;;;0.57;93.70;100431.00;2022950;80;20191;-71
2022/01/16 09:15:09;;;;;;;33.72;15.84;;;;;;;0.60;93.71;100443.94;2021535;80;20454;-71
2022/01/16 09:18:12;;;;;;;33.80;16.70;;;;;;;0.62;93.51;100440.56;2022883;77;21391;-71
2022/01/16 09:21:16;;;;;;;33.33;17.14;;;;;;;0.65;93.59;100440.72;2022593;80;20342;-71
2022/01/16 09:24:19;;;;;;;35.91;17.76;;;;;;;0.70;93.44;100449.50;2023006;80;20369;-71
2022/01/16 09:27:22;;;;;;;32.78;17.37;;;;;;;0.72;93.33;100450.44;2023010;80;20187;-70
2022/01/16 09:30:25;;;;;;;31.22;16.50;;;;;;;0.75;93.26;100453.19;2020773;78;21352;-70
2022/01/16 09:33:27;;;;;;;31.60;17.12;;;;;;;0.79;93.16;100453.41;2020278;80;20988;-70
2022/01/16 09:36:34;;;;;;;35.15;16.46;;;;;;;0.75;92.91;100438.75;2020228;80;20163;-70
2022/01/16 09:39:38;;;;;;;33.50;18.26;;;;;;;0.78;92.94;100451.66;2021414;80;20330;-73
2022/01/16 09:42:41;;;;;;;37.93;18.74;;;;;;;0.79;92.95;100458.53;2022336;80;20901;-70
2022/01/16 09:45:43;;;;;;;32.46;17.49;;;;;;;0.80;92.98;100470.50;2020979;77;21806;-70
2022/01/16 09:48:46;;;;;;;35.30;17.81;;;;;;;0.85;93.08;100476.72;2022052;80;20300;-70
2022/01/16 09:51:51;;;;;;;37.56;18.39;;;;;;;0.92;93.11;100485.63;2023271;80;20304;-70
2022/01/16 09:54:54;;;;;;;39.95;19.10;;;;;;;0.96;93.03;100491.75;2022092;80;20461;-70
2022/01/16 09:57:57;;;;;;;40.94;18.65;;;;;;;0.92;92.74;100493.28;2022241;80;21187;-70
2022/01/16 10:01:02;;;;;;;32.35;16.25;;;;;;;0.93;92.90;100494.16;2021396;77;21617;-72
2022/01/16 10:04:04;;;;;;;40.92;19.15;;;;;;;0.91;92.83;100499.22;2022778;80;20356;-70
2022/01/16 10:07:16;;;;;;;41.64;17.98;;;;;;;0.89;92.97;100488.00;2018312;80;20330;-70
2022/01/16 10:10:19;;;;;;;42.30;19.74;;;;;;;0.91;93.25;100496.66;2021360;80;20338;-70
2022/01/16 10:13:37;;;;;;;41.21;19.36;;;;;;;0.97;93.52;100496.06;2019385;80;20407;-70
2022/01/16 10:16:41;;;;;;;43.48;19.99;;;;;;;1.03;93.47;100509.16;2014999;77;21930;-70
2022/01/16 10:19:44;;;;;;;40.22;20.02;;;;;;;1.05;93.48;100503.31;2014158;80;20216;-70
2022/01/16 10:22:53;;;;;;;43.00;20.45;;;;;;;1.12;93.48;100500.28;2013623;80;20313;-70
2022/01/16 10:25:56;;;;;;;42.67;19.98;;;;;;;1.18;93.43;100499.72;2013917;80;20325;-70
2022/01/16 10:28:58;;;;;;;40.34;19.76;;;;;;;1.22;93.17;100488.84;2014569;80;21220;-70
2022/01/16 10:32:31;;;;;;;38.31;18.77;;;;;;;1.23;93.06;100487.16;2012867;77;36032;-70
2022/01/16 10:35:38;;;;;;;35.65;18.42;;;;;;;1.28;93.08;100501.09;2013052;80;20371;-70
2022/01/16 10:38:40;;;;;;;33.78;18.01;;;;;;;1.31;92.78;100508.91;2014402;80;20455;-71
2022/01/16 10:41:43;;;;;;;37.66;19.33;;;;;;;1.32;92.69;100513.22;2018156;80;20317;-70
2022/01/16 10:44:54;;;;;;;37.60;18.45;;;;;;;1.36;92.57;100503.19;2013934;80;20816;-70
2022/01/16 10:48:02;;;;;;;32.38;18.04;;;;;;;1.38;92.40;100506.72;2012112;77;20480;-70
2022/01/16 10:51:18;;;;;;;30.23;17.91;;;;;;;1.38;92.15;100506.72;2013809;80;20320;-70
2022/01/16 10:54:32;;;;;;;34.78;18.75;;;;;;;1.39;92.04;100500.78;2014081;80;20272;-70
2022/01/16 10:57:36;;;;;;;29.38;16.63;;;;;;;1.43;92.04;100497.56;2012844;80;20333;-72
2022/01/16 11:00:41;;;;;;;32.51;17.96;;;;;;;1.50;92.01;100491.09;2012263;78;36830;-70
2022/01/16 11:03:47;;;;;;;31.35;17.15;;;;;;;1.54;91.87;100492.13;2013732;80;20352;-70
2022/01/16 11:07:03;;;;;;;31.39;16.88;;;;;;;1.53;91.45;100488.69;2015349;80;20314;-70
2022/01/16 11:10:18;;;;;;;31.33;17.48;;;;;;;1.51;91.47;100480.94;2015063;80;21228;-70
2022/01/16 11:13:23;;;;;;;31.95;16.42;;;;;;;1.56;91.31;100475.16;2014383;80;20335;-70
2022/01/16 11:16:27;;;;;;;29.85;16.09;;;;;;;1.58;91.21;100474.41;2012866;78;22510;-70
2022/01/16 11:19:35;;;;;;;32.28;16.71;;;;;;;1.55;90.96;100484.53;2014925;80;20359;-70
2022/01/16 11:26:03;;;;;;;27.75;15.39;;;;;;;1.57;91.20;100488.03;2016135;80;20822;-70
2022/01/16 11:29:07;;;;;;;28.02;15.84;;;;;;;1.54;90.85;100492.13;2015234;80;21077;-70
2022/01/16 11:32:10;;;;;;;27.83;14.95;;;;;;;1.52;91.01;100489.50;2014063;77;20325;-70
2022/01/16 11:35:13;;;;;;;28.61;16.89;;;;;;;1.54;90.96;100492.13;2016099;80;20374;-70
2022/01/16 11:38:19;;;;;;;25.15;15.48;;;;;;;1.55;90.86;100502.44;2016483;80;20424;-70
2022/01/16 11:41:35;;;;;;;27.70;16.27;;;;;;;1.56;90.91;100506.75;2012711;80;20321;-70
2022/01/16 11:44:38;;;;;;;25.58;13.90;;;;;;;1.50;90.77;100491.09;2016518;80;20375;-70
2022/01/16 11:48:06;;;;;;;27.36;14.79;;;;;;;1.51;91.07;100508.22;2010228;77;23654;-70
2022/01/16 11:54:42;;;;;;;27.02;14.75;;;;;;;1.50;91.12;100519.25;2016228;80;20219;-70
2022/01/16 11:57:56;;;;;;;23.34;13.30;;;;;;;1.48;91.08;100521.75;2017408;80;20330;-70
2022/01/16 12:00:59;;;;;;;23.83;13.49;;;;;;;1.49;91.26;100512.38;2011783;78;20785;-70
2022/01/16 12:04:02;;;;;;;23.63;13.16;;;;;;;1.54;91.36;100512.59;2009924;80;20344;-70
2022/01/16 12:07:13;;;;;;;21.80;12.76;;;;;;;1.55;91.29;100522.91;2016391;80;20374;-70
2022/01/16 12:10:50;;;;;;;22.50;13.20;;;;;;;1.57;91.19;100522.97;2016157;80;21091;-70
2022/01/16 12:13:53;;;;;;;21.66;13.07;;;;;;;1.58;91.27;100515.38;2007805;80;20317;-70
2022/01/16 12:16:56;;;;;;;22.92;13.73;;;;;;;1.63;91.08;100510.50;2010986;78;22426;-70
2022/01/16 12:19:59;;;;;;;23.24;13.73;;;;;;;1.66;90.93;100521.78;2010738;80;20326;-70
2022/01/16 12:23:04;;;;;;;24.29;14.18;;;;;;;1.68;90.88;100535.53;2011179;80;20354;-70
2022/01/16 12:26:34;;;;;;;22.94;13.21;;;;;;;1.70;90.85;100533.91;2010974;80;20330;-70
2022/01/16 12:30:08;;;;;;;23.16;13.13;;;;;;;1.71;90.55;100533.09;2010975;80;20858;-70
2022/01/16 12:33:22;;;;;;;21.77;13.01;;;;;;;1.70;90.48;100533.03;2015493;78;21081;-70
2022/01/16 12:36:34;;;;;;;24.50;14.02;;;;;;;1.70;90.50;100527.91;2020768;80;20355;-70
2022/01/16 12:39:42;;;;;;;20.15;11.84;;;;;;;1.74;90.43;100525.56;2020433;80;20328;-70
2022/01/16 12:42:45;;;;;;;20.31;12.51;;;;;;;1.74;90.41;100523.00;2021618;80;20312;-70
2022/01/16 12:45:48;;;;;;;23.65;13.01;;;;;;;1.76;90.20;100510.28;2018329;78;20499;-70
2022/01/16 12:48:53;;;;;;;20.91;12.25;;;;;;;1.75;90.00;100493.16;2015434;80;20383;-70
2022/01/16 12:51:57;;;;;;;17.74;10.88;;;;;;;1.74;90.10;100502.53;2016254;80;20334;-70
2022/01/16 12:55:07;;;;;;;21.13;12.84;;;;;;;1.76;90.11;100516.28;2015787;80;20428;-70
2022/01/16 12:58:27;;;;;;;21.90;12.38;;;;;;;1.71;90.00;100516.88;2016111;80;20531;-69
2022/01/16 13:01:30;;;;;;;20.46;11.65;;;;;;;1.75;90.16;100494.03;2014758;77;21138;-69
2022/01/16 13:04:36;;;;;;;20.08;12.21;;;;;;;1.77;89.98;100504.34;2015876;80;20325;-69
2022/01/16 13:07:59;;;;;;;22.01;12.32;;;;;;;1.78;90.03;100518.91;2016825;80;20936;-69
2022/01/16 13:11:15;;;;;;;21.23;12.91;;;;;;;1.83;89.94;100517.47;2015437;80;20374;-69
2022/01/16 13:14:35;;;;;;;22.67;13.11;;;;;;;1.84;89.96;100529.47;2015789;80;20309;-69
2022/01/16 13:17:37;;;;;;;22.08;12.41;;;;;;;1.85;89.73;100518.41;2013842;78;32729;-69
2022/01/16 13:20:40;;;;;;;23.27;13.11;;;;;;;1.81;89.71;100512.28;2014709;80;20440;-69
2022/01/16 13:23:50;;;;;;;22.73;12.94;;;;;;;1.79;89.50;100518.97;2017092;80;20513;-69
2022/01/16 13:26:54;;;;;;;20.46;12.43;;;;;;;1.80;89.77;100512.22;2015702;80;20401;-69
2022/01/16 13:30:27;;;;;;;23.27;13.01;;;;;;;1.83;89.65;100502.09;2014701;80;20390;-69
2022/01/16 13:33:30;;;;;;;21.33;12.89;;;;;;;1.87;89.60;100511.69;2018048;80;20202;-69
2022/01/16 13:36:33;;;;;;;21.66;12.45;;;;;;;1.89;89.64;100509.19;2020886;80;20620;-69
2022/01/16 13:39:38;;;;;;;23.51;13.40;;;;;;;1.94;89.52;100525.66;2021287;80;21334;-69
2022/01/16 13:45:49;;;;;;;21.23;12.63;;;;;;;1.92;89.28;100543.50;2018564;77;21375;-69
2022/01/16 13:48:59;;;;;;;20.46;12.69;;;;;;;1.91;89.19;100541.75;2021220;80;20195;-69
2022/01/16 13:52:07;;;;;;;21.00;12.80;;;;;;;1.90;89.01;100542.56;2021745;80;20308;-70
2022/01/16 13:55:10;;;;;;;21.01;12.70;;;;;;;1.88;88.80;100545.84;2021329;80;20472;-70
2022/01/16 13:58:18;;;;;;;21.59;11.79;;;;;;;1.86;88.80;100544.91;2021306;80;20342;-70
2022/01/16 14:01:24;;;;;;;19.19;12.49;;;;;;;1.84;88.76;100544.84;2019857;78;22405;-70
2022/01/16 14:04:27;;;;;;;21.16;11.81;;;;;;;1.79;88.85;100539.47;2022531;80;20304;-70
2022/01/16 14:07:30;;;;;;;18.80;11.68;;;;;;;1.78;88.98;100542.81;2020641;80;20832;-70
2022/01/16 14:10:37;;;;;;;19.99;12.10;;;;;;;1.75;89.07;100541.81;2024115;80;20403;-70
2022/01/16 14:13:55;;;;;;;20.75;11.98;;;;;;;1.74;89.24;100546.03;2021452;80;21238;-70
2022/01/16 14:20:47;;;;;;;21.55;12.55;;;;;;;1.74;89.55;100540.94;2021269;80;20385;-70
2022/01/16 14:23:27;;;;;;;20.35;11.91;;;;;;;1.75;89.69;100552.03;2020854;80;20327;-70
2022/01/16 14:26:30;;;;;;;20.51;11.96;;;;;;;1.74;89.76;100551.16;2020304;80;20373;-70
2022/01/16 14:29:36;;;;;;;17.42;11.39;;;;;;;1.74;89.84;100550.28;2021109;80;20360;-70
2022/01/16 14:32:39;;;;;;;20.08;11.77;;;;;;;1.71;89.74;100548.47;2014023;77;20317;-70
2022/01/16 14:35:42;;;;;;;18.14;11.65;;;;;;;1.72;90.07;100559.59;2016021;80;20849;-70
2022/01/16 14:38:44;;;;;;;21.46;11.89;;;;;;;1.72;90.07;100554.47;2015641;80;20293;-70
2022/01/16 14:41:48;;;;;;;17.39;10.56;;;;;;;1.69;90.15;100559.44;2016235;80;20354;-70
2022/01/16 14:44:51;;;;;;;18.49;10.88;;;;;;;1.69;90.35;100555.19;2014974;80;20851;-70
2022/01/16 14:47:54;;;;;;;16.54;10.88;;;;;;;1.66;90.30;100554.16;2014031;77;20745;-70
2022/01/16 14:50:56;;;;;;;18.04;11.31;;;;;;;1.69;90.41;100560.31;2015039;80;20398;-70
2022/01/16 14:54:00;;;;;;;15.93;10.57;;;;;;;1.68;90.42;100562.81;2016397;80;20324;-70
2022/01/16 14:57:03;;;;;;;16.54;10.79;;;;;;;1.64;90.38;100573.69;2016169;80;21002;-70
2022/01/16 15:00:06;;;;;;;16.21;9.50;;;;;;;1.59;90.33;100575.13;2015211;80;20324;-70